Time;durP1;ratioP1;P1;durP2;ratioP2;P2;SDS_P1;SDS_P2;PMS_P1;PMS_P2;Temp;Humidity;BMP_temperature;BMP_pressure;BME280_temperature;BME280_humidity;BME280_pressure;Samples;Min_cycle;Max_cycle;Signal;HPM_P1;HPM_P2
2021/11/03 00:01:32;;;;;;;20.60;8.90;;;;;;;-142.75;100.00;76798.66;5047131;28;20029;-72
2021/11/03 00:03:58;;;;;;;14.60;8.83;;;;;;;-142.75;100.00;76806.50;5049162;28;20032;-72
2021/11/03 00:06:24;;;;;;;14.80;8.67;;;;;;;-142.75;100.00;76802.56;5039745;28;20585;-72
2021/11/03 00:08:50;;;;;;;17.30;8.88;;;;;;;-142.75;100.00;76786.84;5032171;28;20025;-72
2021/11/03 00:11:16;;;;;;;13.37;8.80;;;;;;;-142.75;100.00;76798.66;5047309;28;20079;-72
2021/11/03 00:13:42;;;;;;;;;;;;;;;-142.75;100.00;76796.69;5049822;28;20026;-72
2021/11/03 00:16:07;;;;;;;16.17;8.57;;;;;;;-142.75;100.00;76804.53;5048916;28;19923;-73
2021/11/03 00:18:33;;;;;;;13.35;8.70;;;;;;;-142.75;100.00;76788.81;5048891;28;20386;-72
2021/11/03 00:21:01;;;;;;;10.98;7.63;;;;;;;-142.75;100.00;76786.84;5048130;28;20058;-72
2021/11/03 00:23:26;;;;;;;12.50;8.03;;;;;;;-142.75;100.00;76786.84;5042387;22;20046;-67
2021/11/03 00:25:52;;;;;;;15.48;9.02;;;;;;;-142.75;100.00;76786.84;5009631;28;20040;-67
2021/11/03 00:28:20;;;;;;;12.50;8.52;;;;;;;-142.75;100.00;76790.78;5009017;28;20026;-67
2021/11/03 00:30:48;;;;;;;12.13;8.13;;;;;;;-142.75;100.00;76769.13;5008617;28;20044;-67
2021/11/03 00:33:14;;;;;;;17.63;9.17;;;;;;;-142.75;100.00;76763.22;5009008;28;20025;-67
2021/11/03 00:35:40;;;;;;;12.00;8.23;;;;;;;-142.75;100.00;76761.25;5009254;28;20044;-67
2021/11/03 00:38:05;;;;;;;14.75;9.18;;;;;;;-142.75;100.00;76775.03;4991489;28;20018;-67
2021/11/03 00:40:30;;;;;;;13.98;9.02;;;;;;;-142.75;100.00;76771.09;5008460;28;20363;-67
2021/11/03 00:42:56;;;;;;;15.88;9.45;;;;;;;-142.75;100.00;76767.16;5008821;28;20028;-68
2021/11/03 00:45:22;;;;;;;15.75;8.55;;;;;;;-142.75;100.00;76775.03;4991366;28;20026;-67
2021/11/03 00:47:47;;;;;;;12.40;8.63;;;;;;;-142.75;100.00;76778.97;5009192;28;20083;-67
2021/11/03 00:50:13;;;;;;;11.73;8.13;;;;;;;-142.75;100.00;76788.81;5007762;28;20530;-66
2021/11/03 00:52:38;;;;;;;14.60;9.27;;;;;;;-142.75;100.00;76802.56;4991507;28;20048;-67
2021/11/03 00:55:04;;;;;;;13.87;8.70;;;;;;;-142.75;100.00;76806.50;5009576;28;20180;-68
2021/11/03 00:57:29;;;;;;;13.73;8.38;;;;;;;-142.75;100.00;76814.38;5008631;28;20033;-67
2021/11/03 00:59:55;;;;;;;13.20;9.05;;;;;;;-142.75;100.00;76834.06;5008046;28;20064;-67
2021/11/03 01:02:20;;;;;;;13.70;8.63;;;;;;;-142.75;100.00;76832.09;5008794;28;20029;-67
2021/11/03 01:04:45;;;;;;;12.63;8.27;;;;;;;-142.75;100.00;76828.16;4991469;28;20273;-67
2021/11/03 01:07:11;;;;;;;14.00;8.38;;;;;;;-142.75;100.00;76828.16;5008870;28;20026;-68
2021/11/03 01:09:37;;;;;;;12.52;8.43;;;;;;;-142.75;100.00;76836.03;5008946;28;20026;-68
2021/11/03 01:12:03;;;;;;;13.93;8.05;;;;;;;-142.75;100.00;76839.97;5008177;28;20041;-68
2021/11/03 01:14:28;;;;;;;;;;;;;;;-142.75;100.00;76845.88;5009039;28;20049;-68
2021/11/03 01:16:53;;;;;;;13.77;8.70;;;;;;;-142.75;100.00;76836.03;5008657;28;19925;-66
2021/11/03 01:19:19;;;;;;;14.13;9.05;;;;;;;-142.75;100.00;76832.09;5008481;28;20491;-67
2021/11/03 01:21:44;;;;;;;11.80;8.40;;;;;;;-142.75;100.00;76834.06;5008327;28;20514;-67
2021/11/03 01:24:10;;;;;;;8.88;6.03;;;;;;;-142.75;100.00;76828.16;5008689;28;20022;-67
2021/11/03 01:26:36;;;;;;;10.13;5.82;;;;;;;-142.75;100.00;76859.66;5008751;28;20076;-67
2021/11/03 01:29:02;;;;;;;27.30;5.18;;;;;;;-142.75;100.00;76928.56;5008507;28;20029;-67
2021/11/03 01:31:27;;;;;;;19.23;5.50;;;;;;;-142.75;100.00;76948.25;5007557;28;20050;-68
2021/11/03 01:33:56;;;;;;;9.97;6.73;;;;;;;-142.75;100.00;76940.38;5008243;28;20119;-67
2021/11/03 01:36:22;;;;;;;9.93;6.17;;;;;;;-142.75;100.00;76964.00;5008245;28;20735;-68
2021/11/03 01:38:47;;;;;;;10.93;6.32;;;;;;;-142.75;100.00;76971.88;5010089;28;20426;-68
2021/11/03 01:41:13;;;;;;;14.35;8.43;;;;;;;-142.75;100.00;76952.19;5011065;28;20026;-67
2021/11/03 01:43:48;;;;;;;11.77;8.35;;;;;;;-142.75;100.00;76962.03;5012446;28;20030;-67
2021/11/03 01:46:34;;;;;;;12.00;7.47;;;;;;;-142.75;100.00;76975.81;5011992;28;20017;-67
2021/11/03 01:49:22;;;;;;;10.83;7.37;;;;;;;-142.75;100.00;76975.81;5012115;28;20491;-67
2021/11/03 01:52:03;;;;;;;11.63;8.00;;;;;;;-142.75;100.00;76962.03;5011533;28;20108;-67
2021/11/03 01:54:33;;;;;;;11.80;8.13;;;;;;;-142.75;100.00;76952.19;5012340;28;20030;-67
2021/11/03 01:57:02;;;;;;;12.13;7.37;;;;;;;-142.75;100.00;76991.56;5011817;28;20542;-68
2021/11/03 01:59:30;;;;;;;12.37;7.90;;;;;;;-142.75;100.00;77003.38;5012017;28;20543;-67
2021/11/03 02:01:55;;;;;;;14.70;8.53;;;;;;;-142.75;100.00;76971.88;5010824;28;20034;-67
2021/11/03 02:04:21;;;;;;;14.05;9.35;;;;;;;-142.75;100.00;76942.34;4994227;28;20037;-67
2021/11/03 02:06:47;;;;;;;13.70;7.18;;;;;;;-142.75;100.00;76958.09;5011917;28;20053;-67
2021/11/03 02:09:13;;;;;;;15.10;8.98;;;;;;;-142.75;100.00;76944.31;4993874;28;20060;-67
2021/11/03 02:11:39;;;;;;;16.88;10.70;;;;;;;-142.75;100.00;76916.75;4993777;28;20587;-67
2021/11/03 02:14:07;;;;;;;12.02;8.75;;;;;;;-142.75;100.00;76922.66;5011576;28;20037;-67
2021/11/03 02:16:40;;;;;;;15.53;9.63;;;;;;;-142.75;100.00;76916.75;5011375;28;20037;-67
2021/11/03 02:19:13;;;;;;;15.77;10.30;;;;;;;-142.75;100.00;76897.06;5011533;28;20065;-67
2021/11/03 02:21:47;;;;;;;17.13;8.07;;;;;;;-142.75;100.00;76897.06;5011002;28;20026;-67
2021/11/03 02:24:26;;;;;;;36.47;6.43;;;;;;;-142.75;100.00;76950.22;5011094;28;20076;-67
2021/11/03 02:26:52;;;;;;;12.73;6.93;;;;;;;-142.75;100.00;76942.34;5011535;28;20022;-67
2021/11/03 02:29:22;;;;;;;8.07;6.30;;;;;;;-142.75;100.00;76960.06;4993862;28;20021;-67
2021/11/03 02:31:51;;;;;;;8.53;6.07;;;;;;;-142.75;100.00;76962.03;5010598;28;20045;-67
2021/11/03 02:34:24;;;;;;;13.57;8.17;;;;;;;-142.75;100.00;76946.28;5011264;28;20065;-67
2021/11/03 02:37:23;;;;;;;10.50;7.43;;;;;;;-142.75;100.00;76944.31;5011193;28;20029;-67
2021/11/03 02:39:53;;;;;;;16.60;7.37;;;;;;;-142.75;100.00;76964.00;5009991;28;20519;-67
2021/11/03 02:42:19;;;;;;;28.07;8.33;;;;;;;-142.75;100.00;76983.69;5011046;28;20025;-67
2021/11/03 02:44:47;;;;;;;26.17;9.93;;;;;;;-142.75;100.00;76981.72;4993833;28;20042;-67
2021/11/03 02:47:14;;;;;;;48.33;7.97;;;;;;;-142.75;100.00;76989.59;5010834;28;20018;-67
2021/11/03 02:49:40;;;;;;;21.08;7.10;;;;;;;-142.75;100.00;76987.63;5010619;28;20029;-66
2021/11/03 02:52:12;;;;;;;;;;;;;;;-142.75;100.00;76971.88;4993642;28;20541;-67
2021/11/03 02:54:38;;;;;;;13.03;7.90;;;;;;;-142.75;100.00;76960.06;5011588;28;20008;-67
2021/11/03 02:57:04;;;;;;;13.02;8.25;;;;;;;-142.75;100.00;76952.19;5011033;28;20622;-67
2021/11/03 02:59:29;;;;;;;12.55;9.55;;;;;;;-142.75;100.00;76936.44;5010613;28;20030;-67
2021/11/03 03:01:57;;;;;;;15.90;9.60;;;;;;;-142.75;100.00;76932.50;5010110;28;20030;-67
2021/11/03 03:04:25;;;;;;;13.63;9.10;;;;;;;-142.75;100.00;76910.84;5010679;28;20492;-68
2021/11/03 03:06:51;;;;;;;12.00;9.20;;;;;;;-142.75;100.00;76897.06;5010567;28;20022;-67
2021/11/03 03:09:18;;;;;;;13.07;8.50;;;;;;;-142.75;100.00;76897.06;5010504;28;20476;-67
2021/11/03 03:11:49;;;;;;;12.40;8.93;;;;;;;-142.75;100.00;76877.38;5010168;28;20127;-67
2021/11/03 03:14:16;;;;;;;11.27;8.63;;;;;;;-142.75;100.00;76877.38;5010364;28;20038;-67
2021/11/03 03:16:43;;;;;;;14.77;9.53;;;;;;;-142.75;100.00;76865.56;5010567;28;20037;-67
2021/11/03 03:19:09;;;;;;;11.37;7.27;;;;;;;-142.75;100.00;76871.47;5010398;28;20391;-67
2021/11/03 03:21:34;;;;;;;8.75;5.78;;;;;;;-142.75;100.00;76873.44;5009579;28;20064;-67
2021/11/03 03:24:02;;;;;;;10.43;6.70;;;;;;;-142.75;100.00;76881.31;5010138;28;20072;-67
2021/11/03 03:26:28;;;;;;;15.17;8.07;;;;;;;-142.75;100.00;76875.41;4993262;28;20277;-67
2021/11/03 03:28:54;;;;;;;16.48;7.35;;;;;;;-142.75;100.00;76877.38;5010115;28;20462;-67
2021/11/03 03:31:21;;;;;;;26.37;5.27;;;;;;;-142.75;100.00;76893.13;5009562;28;20377;-67
2021/11/03 03:33:49;;;;;;;45.30;4.33;;;;;;;-142.75;100.00;76895.09;5010403;28;20030;-67
2021/11/03 03:36:16;;;;;;;87.83;5.10;;;;;;;-142.75;100.00;76934.47;5009940;28;20533;-67
2021/11/03 03:38:41;;;;;;;98.93;4.93;;;;;;;-142.75;100.00;76975.81;5010060;28;20033;-67
2021/11/03 03:41:08;;;;;;;31.83;4.30;;;;;;;-142.75;100.00;76993.53;5009360;28;20044;-67
2021/11/03 03:43:33;;;;;;;90.30;7.43;;;;;;;-142.75;100.00;77027.00;5010039;28;20452;-67
2021/11/03 03:45:59;;;;;;;106.85;8.75;;;;;;;-142.75;100.00;77046.69;5009770;28;20104;-67
2021/11/03 03:48:24;;;;;;;67.82;8.57;;;;;;;-142.75;100.00;77060.47;5009894;28;20036;-67
2021/11/03 03:50:50;;;;;;;53.22;7.60;;;;;;;-142.75;100.00;77101.81;5009079;28;20034;-67
2021/11/03 03:53:15;;;;;;;;;;;;;;;-142.75;100.00;77119.53;5010115;28;20110;-67
2021/11/03 03:55:41;;;;;;;12.13;7.60;;;;;;;-142.75;100.00;77109.69;4993038;28;20004;-67
2021/11/03 03:58:06;;;;;;;95.93;9.32;;;;;;;-142.75;100.00;77133.31;5009745;28;20029;-67
2021/11/03 04:00:32;;;;;;;67.50;7.13;;;;;;;-142.75;100.00;77162.84;5009038;28;20030;-67
2021/11/03 04:02:58;;;;;;;18.30;5.68;;;;;;;-142.75;100.00;77206.16;5009194;28;20026;-67
2021/11/03 04:05:24;;;;;;;100.60;7.35;;;;;;;-142.75;100.00;77235.69;4991834;28;20030;-67
2021/11/03 04:07:50;;;;;;;116.13;10.40;;;;;;;-142.75;100.00;77231.75;5009584;28;20101;-66
2021/11/03 04:10:16;;;;;;;;;;;;;;;-142.75;100.00;77227.81;5009031;28;20033;-67
2021/11/03 04:12:42;;;;;;;164.17;13.63;;;;;;;-142.75;100.00;77229.78;5009817;28;19913;-67
2021/11/03 04:15:09;;;;;;;204.40;15.68;;;;;;;-142.75;100.00;77229.78;5009373;28;20881;-67
2021/11/03 04:17:34;;;;;;;115.47;13.30;;;;;;;-142.75;100.00;77229.78;4991498;28;20029;-67
2021/11/03 04:19:59;;;;;;;111.68;13.48;;;;;;;-142.75;100.00;77225.84;5008623;28;20026;-67
2021/11/03 04:22:25;;;;;;;159.45;15.18;;;;;;;-142.75;100.00;77227.81;4991474;28;20124;-67
2021/11/03 04:24:50;;;;;;;125.03;13.30;;;;;;;-142.75;100.00;77219.94;5009713;28;20036;-67
2021/11/03 04:27:16;;;;;;;119.63;15.73;;;;;;;-142.75;100.00;77216.00;5009122;28;20022;-67
2021/11/03 04:29:41;;;;;;;102.05;15.55;;;;;;;-142.75;100.00;77227.81;4991225;28;20475;-66
2021/11/03 04:32:07;;;;;;;72.10;13.98;;;;;;;-142.75;100.00;77243.56;5008835;28;20028;-67
2021/11/03 04:34:33;;;;;;;113.10;13.88;;;;;;;-142.75;100.00;77241.59;5009252;28;20021;-67
2021/11/03 04:36:58;;;;;;;107.20;13.45;;;;;;;-142.75;100.00;77255.38;5008989;28;20061;-67
2021/11/03 04:39:23;;;;;;;80.57;13.97;;;;;;;-142.75;100.00;77255.38;5009143;28;20029;-67
2021/11/03 04:41:49;;;;;;;113.32;14.40;;;;;;;-142.75;100.00;77241.59;5008282;28;20279;-66
2021/11/03 04:44:14;;;;;;;161.50;16.92;;;;;;;-142.75;100.00;77231.75;5008787;28;20030;-67
2021/11/03 04:46:40;;;;;;;36.75;13.90;;;;;;;-142.75;100.00;77227.81;5009222;28;20068;-67
2021/11/03 04:49:05;;;;;;;36.50;14.18;;;;;;;-142.75;100.00;77212.06;5015673;28;20083;-67
2021/11/03 04:51:31;;;;;;;55.45;14.90;;;;;;;-142.75;100.00;77198.28;5027688;28;20495;-67
2021/11/03 04:53:56;;;;;;;68.30;16.85;;;;;;;-142.75;100.00;77186.47;5028578;28;20544;-67
2021/11/03 04:56:24;;;;;;;83.75;17.50;;;;;;;-142.75;100.00;77180.56;5027824;28;20076;-68
2021/11/03 04:58:51;;;;;;;71.10;21.07;;;;;;;-142.75;100.00;77164.81;5008945;28;20030;-67
2021/11/03 05:01:20;;;;;;;59.33;20.07;;;;;;;-142.75;100.00;77151.03;4990399;28;20025;-67
2021/11/03 05:03:47;;;;;;;68.90;18.67;;;;;;;-142.75;100.00;77145.13;5009051;28;20030;-67
2021/11/03 05:06:14;;;;;;;45.43;17.27;;;;;;;-142.75;100.00;77129.38;5008209;28;20024;-67
2021/11/03 05:08:40;;;;;;;80.87;18.67;;;;;;;-142.75;100.00;77125.44;5009155;28;20044;-66
2021/11/03 05:11:05;;;;;;;27.50;17.55;;;;;;;-142.75;100.00;77103.78;5007865;28;20414;-66
2021/11/03 05:13:31;;;;;;;34.63;16.47;;;;;;;-142.75;100.00;77090.00;5009286;28;20029;-66
2021/11/03 05:15:56;;;;;;;89.95;18.65;;;;;;;-142.75;100.00;77097.88;5012605;28;20677;-66
2021/11/03 05:18:21;;;;;;;86.53;19.67;;;;;;;-142.75;100.00;77115.59;5012613;28;20040;-66
2021/11/03 05:20:47;;;;;;;57.13;19.00;;;;;;;-142.75;100.00;77101.81;4994516;28;20376;-65
2021/11/03 05:23:13;;;;;;;23.40;15.98;;;;;;;-142.75;100.00;77090.00;5012071;28;20032;-65
2021/11/03 05:25:38;;;;;;;71.72;18.77;;;;;;;-142.75;100.00;77091.97;5013361;28;20109;-66
2021/11/03 05:28:04;;;;;;;38.13;15.75;;;;;;;-142.75;100.00;77082.13;5012464;28;20053;-66
2021/11/03 05:30:29;;;;;;;131.73;18.73;;;;;;;-142.75;100.00;77090.00;5011775;28;20455;-65
2021/11/03 05:32:56;;;;;;;34.15;15.80;;;;;;;-142.75;100.00;77103.78;5012092;28;20105;-65
2021/11/03 05:35:22;;;;;;;67.47;16.80;;;;;;;-142.75;100.00;77127.41;5012336;28;20097;-66
2021/11/03 05:37:47;;;;;;;44.20;14.63;;;;;;;-142.75;100.00;77105.75;5012546;28;20108;-65
2021/11/03 05:40:20;;;;;;;39.45;15.90;;;;;;;-142.75;100.00;77101.81;5010113;28;20029;-65
2021/11/03 05:42:45;;;;;;;53.90;15.23;;;;;;;-142.75;100.00;77107.72;5012554;28;20030;-65
2021/11/03 05:45:11;;;;;;;28.20;13.80;;;;;;;-142.75;100.00;77107.72;4994442;28;20176;-66
2021/11/03 05:47:37;;;;;;;45.10;15.07;;;;;;;-142.75;100.00;77095.91;5012185;28;20499;-66
2021/11/03 05:50:04;;;;;;;35.35;15.43;;;;;;;-142.75;100.00;77095.91;5011220;28;20032;-66
2021/11/03 05:52:29;;;;;;;27.23;15.23;;;;;;;-142.75;100.00;77080.16;5029883;28;20033;-66
2021/11/03 05:54:54;;;;;;;27.27;16.30;;;;;;;-142.75;100.00;77070.31;5031912;28;20055;-66
2021/11/03 05:57:35;;;;;;;28.55;15.18;;;;;;;-142.75;100.00;77046.69;5032326;28;20435;-66
2021/11/03 06:00:06;;;;;;;24.47;15.13;;;;;;;-142.75;100.00;77048.66;5031535;28;20031;-66
2021/11/03 06:02:32;;;;;;;27.20;15.97;;;;;;;-142.75;100.00;77040.78;5013337;28;20508;-66
2021/11/03 06:04:57;;;;;;;20.38;15.20;;;;;;;-142.75;100.00;77023.06;5032176;28;20034;-66
2021/11/03 06:07:22;;;;;;;26.05;16.38;;;;;;;-142.75;100.00;77019.13;5032141;28;20018;-66
2021/11/03 06:09:48;;;;;;;21.15;15.45;;;;;;;-142.75;100.00;77011.25;5013866;28;20029;-66
2021/11/03 06:12:13;;;;;;;21.25;16.02;;;;;;;-142.75;100.00;76995.50;5031919;28;20021;-66
2021/11/03 06:14:39;;;;;;;24.25;14.85;;;;;;;-142.75;100.00;76999.44;5014539;28;20112;-66
2021/11/03 06:17:05;;;;;;;30.77;14.93;;;;;;;-142.75;100.00;77009.28;5031767;28;20056;-66
2021/11/03 06:19:30;;;;;;;24.75;13.77;;;;;;;-142.75;100.00;77025.03;5014158;28;20033;-66
2021/11/03 06:21:55;;;;;;;24.85;13.07;;;;;;;-142.75;100.00;77019.13;5031063;28;20033;-66
2021/11/03 06:24:21;;;;;;;29.13;11.87;;;;;;;-142.75;100.00;77042.75;5049562;22;20048;-71
2021/11/03 06:26:46;;;;;;;24.63;13.05;;;;;;;-142.75;100.00;77048.66;5018611;28;20271;-69
2021/11/03 06:29:12;;;;;;;34.63;12.27;;;;;;;-142.75;100.00;77052.59;5033516;28;20044;-67
2021/11/03 06:31:38;;;;;;;24.48;12.27;;;;;;;-142.75;100.00;77048.66;5023557;28;20291;-70
2021/11/03 06:34:05;;;;;;;23.67;11.13;;;;;;;-142.75;100.00;77058.50;5048695;28;20025;-71
2021/11/03 06:36:32;;;;;;;36.57;10.40;;;;;;;-142.75;100.00;77062.44;5026717;28;20025;-69
2021/11/03 06:38:58;;;;;;;29.77;10.80;;;;;;;-142.75;100.00;77076.22;5044088;28;20070;-70
2021/11/03 06:41:23;;;;;;;19.33;9.85;;;;;;;-142.75;100.00;77090.00;5050139;28;20111;-69
2021/11/03 06:43:49;;;;;;;21.90;10.13;;;;;;;-142.75;100.00;77097.88;5033587;28;20020;-68
2021/11/03 06:46:14;;;;;;;94.70;11.05;;;;;;;-142.75;100.00;77103.78;5040469;28;20029;-69
2021/11/03 06:48:40;;;;;;;57.65;9.45;;;;;;;-142.75;100.00;77107.72;5014013;28;20024;-69
2021/11/03 06:51:06;;;;;;;38.42;8.63;;;;;;;-142.75;100.00;77090.00;5041490;28;20032;-69
2021/11/03 06:53:32;;;;;;;168.07;10.02;;;;;;;-142.75;100.00;77137.25;5045129;28;20025;-69
2021/11/03 06:55:59;;;;;;;71.87;9.53;;;;;;;-142.75;100.00;77164.81;5013403;28;20032;-69
2021/11/03 06:58:25;;;;;;;19.73;8.60;;;;;;;-142.75;100.00;77135.28;5029297;28;20020;-69
2021/11/03 07:00:53;;;;;;;80.80;10.27;;;;;;;-142.75;100.00;77133.31;5050348;28;20044;-69
2021/11/03 07:03:20;;;;;;;85.87;9.87;;;;;;;-142.75;100.00;77168.75;5036707;28;20410;-69
2021/11/03 07:05:46;;;;;;;53.50;9.53;;;;;;;-142.75;100.00;77164.81;5017929;28;20029;-69
2021/11/03 07:08:12;;;;;;;17.80;8.50;;;;;;;-142.75;100.00;77168.75;5033023;28;20390;-69
2021/11/03 07:10:41;;;;;;;17.17;9.43;;;;;;;-142.75;100.00;77176.63;5025106;28;20104;-69
2021/11/03 07:13:07;;;;;;;18.07;11.57;;;;;;;-142.75;100.00;77156.94;5037957;28;20490;-69
2021/11/03 07:15:33;;;;;;;12.55;10.23;;;;;;;-142.75;100.00;77153.00;5031695;28;20063;-70
2021/11/03 07:17:58;;;;;;;;;;;;;;;-142.75;100.00;77125.44;5029254;28;21629;-71
2021/11/03 07:20:24;;;;;;;41.23;13.00;;;;;;;-142.75;100.00;77127.41;5044264;28;19917;-70
2021/11/03 07:22:50;;;;;;;58.00;15.15;;;;;;;-142.75;100.00;77149.06;5042314;28;20460;-68
2021/11/03 07:25:22;;;;;;;59.38;12.35;;;;;;;-142.75;100.00;77149.06;5050422;28;20082;-71
2021/11/03 07:27:50;;;;;;;70.93;12.60;;;;;;;-142.75;100.00;77147.09;5048200;28;20057;-69
2021/11/03 07:30:17;;;;;;;19.00;10.77;;;;;;;-142.75;100.00;77119.53;5037202;28;20025;-71
2021/11/03 07:32:42;;;;;;;32.77;11.97;;;;;;;-142.75;100.00;77111.66;5040052;28;20025;-70
2021/11/03 07:35:07;;;;;;;27.40;11.80;;;;;;;-142.75;100.00;77125.44;5050457;28;20222;-70
2021/11/03 07:37:33;;;;;;;27.75;15.02;;;;;;;-142.75;100.00;77143.16;5036421;28;20053;-71
2021/11/03 07:39:58;;;;;;;28.95;10.00;;;;;;;-142.75;100.00;77182.53;5028354;28;20115;-71
2021/11/03 07:42:24;;;;;;;17.98;9.82;;;;;;;-142.75;100.00;77176.63;5032468;28;20056;-69
2021/11/03 07:44:49;;;;;;;20.15;10.05;;;;;;;-142.75;100.00;77176.63;5050288;28;20394;-67
2021/11/03 07:47:16;;;;;;;30.42;10.45;;;;;;;-142.75;100.00;77196.31;5038126;28;20025;-71
2021/11/03 07:49:41;;;;;;;27.30;10.97;;;;;;;-142.75;100.00;77202.22;5035628;28;20029;-68
2021/11/03 07:52:07;;;;;;;45.63;11.88;;;;;;;-142.75;100.00;77196.31;5035600;28;20119;-68
2021/11/03 07:54:32;;;;;;;29.00;10.80;;;;;;;-142.75;100.00;77198.28;5037347;28;20069;-70
2021/11/03 07:56:57;;;;;;;17.08;10.43;;;;;;;-142.75;100.00;77202.22;5040375;28;20056;-71
2021/11/03 07:59:23;;;;;;;34.15;12.25;;;;;;;-142.75;100.00;77206.16;5046779;28;20037;-70
2021/11/03 08:01:51;;;;;;;;;;;;;;;-142.75;100.00;77217.97;5029957;28;20032;-70
2021/11/03 08:04:16;;;;;;;71.03;11.63;;;;;;;-142.75;100.00;77235.69;5028467;28;19920;-70
2021/11/03 08:06:42;;;;;;;26.15;10.20;;;;;;;-142.75;100.00;77231.75;5035357;28;20017;-70
2021/11/03 08:09:08;;;;;;;73.80;11.45;;;;;;;-142.75;100.00;77229.78;5030265;28;20478;-71
2021/11/03 08:11:50;;;;;;;24.63;9.68;;;;;;;-142.75;100.00;77221.91;5018679;28;20033;-70
2021/11/03 08:14:24;;;;;;;29.33;10.07;;;;;;;-142.75;100.00;77223.88;5029996;28;20025;-70
2021/11/03 08:17:19;;;;;;;25.67;11.20;;;;;;;-142.75;100.00;77219.94;5032306;28;20032;-69
2021/11/03 08:19:53;;;;;;;35.13;10.93;;;;;;;-142.75;100.00;77212.06;5009165;28;20614;-69
2021/11/03 08:22:21;;;;;;;21.63;11.40;;;;;;;-142.75;100.00;77188.44;5010373;28;20025;-72
2021/11/03 08:24:48;;;;;;;52.80;13.27;;;;;;;-142.75;100.00;77178.59;5040917;28;20502;-70
2021/11/03 08:27:14;;;;;;;45.20;14.00;;;;;;;-142.75;100.00;77158.91;5027334;28;20124;-69
2021/11/03 08:29:39;;;;;;;60.13;13.48;;;;;;;-142.75;100.00;77145.13;5041720;28;20052;-70
2021/11/03 08:32:06;;;;;;;22.88;14.32;;;;;;;-142.75;100.00;77125.44;5025084;28;20494;-71
2021/11/03 08:34:33;;;;;;;27.67;11.30;;;;;;;-142.75;100.00;77117.56;5023046;28;20037;-70
2021/11/03 08:37:05;;;;;;;29.93;11.43;;;;;;;-142.75;100.00;77084.09;5043720;28;20035;-69
2021/11/03 08:39:32;;;;;;;22.63;10.93;;;;;;;-142.75;100.00;77062.44;5038178;28;20074;-70
2021/11/03 08:41:58;;;;;;;16.53;9.50;;;;;;;-142.75;100.00;77054.56;5041327;28;20040;-69
2021/11/03 08:44:25;;;;;;;19.73;8.85;;;;;;;-142.75;100.00;77032.91;5028285;28;20103;-70
2021/11/03 08:46:50;;;;;;;21.20;10.00;;;;;;;-142.75;100.00;77019.13;5018002;28;20044;-70
2021/11/03 08:49:15;;;;;;;12.77;9.07;;;;;;;-142.75;100.00;76999.44;5034655;28;20060;-70
2021/11/03 08:51:40;;;;;;;11.30;8.23;;;;;;;-142.75;100.00;76983.69;5030611;28;20029;-70
2021/11/03 08:54:07;;;;;;;8.52;7.20;;;;;;;-142.75;100.00;76985.66;5047364;28;20108;-70
2021/11/03 08:56:35;;;;;;;9.17;7.80;;;;;;;-142.75;100.00;76952.19;5028789;28;20021;-70
2021/11/03 08:59:03;;;;;;;8.63;7.73;;;;;;;-142.75;100.00;76934.47;5007569;28;20021;-70
2021/11/03 09:01:29;;;;;;;9.13;7.77;;;;;;;-142.75;100.00;76924.63;5028140;28;20052;-70
2021/11/03 09:03:54;;;;;;;9.15;7.80;;;;;;;-142.75;100.00;76891.16;5040050;28;20053;-70
2021/11/03 09:06:19;;;;;;;16.05;9.10;;;;;;;-142.75;100.00;76904.94;5026916;28;20047;-70
2021/11/03 09:08:47;;;;;;;21.10;10.82;;;;;;;-142.75;100.00;76867.53;5030132;28;20048;-72
2021/11/03 09:11:12;;;;;;;27.80;10.47;;;;;;;-142.75;100.00;76861.63;5027455;28;20087;-72
2021/11/03 09:13:38;;;;;;;33.67;11.88;;;;;;;-142.75;100.00;76838.00;5043486;28;20033;-69
2021/11/03 09:16:04;;;;;;;17.23;11.18;;;;;;;-142.75;100.00;76814.38;5036840;28;20028;-69
2021/11/03 09:18:30;;;;;;;16.77;11.87;;;;;;;-142.75;100.00;76788.81;5045484;28;20501;-69
2021/11/03 09:20:57;;;;;;;17.67;11.20;;;;;;;-142.75;100.00;76778.97;5025918;28;20029;-69
2021/11/03 09:23:22;;;;;;;;;;;;;;;-142.75;100.00;76741.56;5033347;28;20037;-73
2021/11/03 09:25:51;;;;;;;15.20;10.97;;;;;;;-142.75;100.00;76735.66;5028202;28;19968;-70
2021/11/03 09:28:16;;;;;;;16.00;11.30;;;;;;;-142.75;100.00;76674.63;5045514;28;20029;-72
2021/11/03 09:30:41;;;;;;;16.70;10.88;;;;;;;-142.75;100.00;76613.59;5035684;28;20474;-68
2021/11/03 09:33:09;;;;;;;15.75;10.70;;;;;;;-142.75;100.00;76605.72;5045322;28;20025;-69
2021/11/03 09:35:40;;;;;;;13.10;10.20;;;;;;;-142.75;100.00;76609.66;5046739;28;20815;-69
2021/11/03 09:38:06;;;;;;;16.93;11.70;;;;;;;-142.75;100.00;76586.03;5027169;28;20124;-70
2021/11/03 09:40:49;;;;;;;12.37;10.23;;;;;;;-142.75;100.00;76562.41;5026892;28;20029;-70
2021/11/03 09:43:56;;;;;;;13.77;10.32;;;;;;;-142.75;100.00;76483.69;5046688;28;20055;-68
2021/11/03 09:46:50;;;;;;;13.43;9.75;;;;;;;-142.75;100.00;76424.63;5002767;28;20087;-68
2021/11/03 09:49:27;;;;;;;14.52;10.48;;;;;;;-142.75;100.00;76341.97;5045718;28;20498;-68
2021/11/03 09:51:56;;;;;;;13.60;10.35;;;;;;;-142.75;98.96;76278.97;5033860;28;20021;-70
2021/11/03 09:54:26;;;;;;;15.02;9.98;;;;;;;-142.75;96.75;76255.34;5022353;28;20025;-69
2021/11/03 09:56:58;;;;;;;15.00;10.55;;;;;;;-142.75;95.04;76212.03;5031407;28;20552;-71
2021/11/03 09:59:34;;;;;;;11.85;9.23;;;;;;;-142.75;93.28;76215.97;5033699;28;20021;-70
2021/11/03 10:02:17;;;;;;;15.95;10.57;;;;;;;-142.75;93.46;76192.38;5040179;28;20028;-70
2021/11/03 10:05:25;;;;;;;14.50;11.55;;;;;;;-142.75;91.64;76113.63;5021107;28;20090;-70
2021/11/03 10:07:56;;;;;;;16.55;12.18;;;;;;;-142.75;88.36;76046.72;5042492;28;20021;-70
2021/11/03 10:10:32;;;;;;;15.75;12.40;;;;;;;-142.75;84.96;76001.44;5025109;28;20028;-70
2021/11/03 10:13:00;;;;;;;16.33;12.00;;;;;;;-142.75;86.60;76005.38;5019497;28;20031;-70
2021/11/03 10:15:26;;;;;;;16.38;12.18;;;;;;;-142.75;85.92;75956.19;5016555;28;20033;-71
2021/11/03 10:18:18;;;;;;;19.05;13.18;;;;;;;-142.75;81.40;75922.72;5037463;28;20372;-70
2021/11/03 10:21:01;;;;;;;15.20;12.48;;;;;;;-142.75;77.94;75889.25;5037995;28;20099;-69
2021/11/03 10:23:29;;;;;;;17.17;11.50;;;;;;;-142.75;73.78;75895.16;5034735;28;20116;-69
2021/11/03 10:26:10;;;;;;;17.27;11.57;;;;;;;-142.75;76.20;75822.34;5019098;28;20356;-70
2021/11/03 10:28:43;;;;;;;15.60;11.70;;;;;;;-142.75;77.46;75853.84;5038020;28;20111;-69
2021/11/03 10:31:29;;;;;;;15.07;11.57;;;;;;;-142.75;74.60;75851.88;5037218;28;20025;-70
2021/11/03 10:34:04;;;;;;;14.25;10.98;;;;;;;-142.75;77.11;75818.41;5049107;28;20051;-70
2021/11/03 10:36:42;;;;;;;15.50;9.45;;;;;;;-142.75;74.74;75784.94;5035119;28;20030;-69
2021/11/03 10:39:20;;;;;;;13.40;9.90;;;;;;;-142.75;75.82;75767.22;5039240;28;20028;-70
2021/11/03 10:42:02;;;;;;;16.15;9.77;;;;;;;-142.75;75.19;75745.59;5040441;28;20398;-69
2021/11/03 10:44:29;;;;;;;12.65;9.75;;;;;;;-142.75;75.31;75723.94;5041651;28;20435;-70
2021/11/03 10:47:18;;;;;;;14.98;10.68;;;;;;;-142.75;77.29;75743.63;5021102;28;20746;-70
2021/11/03 10:50:02;;;;;;;13.18;10.23;;;;;;;-142.75;76.00;75739.69;5038760;28;20478;-70
2021/11/03 10:52:39;;;;;;;15.20;10.18;;;;;;;-142.75;77.52;75696.38;5025500;28;20108;-69
2021/11/03 10:55:17;;;;;;;12.07;9.25;;;;;;;-142.75;77.16;75686.53;5020089;28;20028;-70
2021/11/03 10:57:46;;;;;;;10.63;6.53;;;;;;;-142.75;74.36;75657.03;5028176;28;20068;-71
2021/11/03 11:00:17;;;;;;;6.50;5.50;;;;;;;-142.75;72.90;75680.63;5022980;28;20402;-72
2021/11/03 11:02:56;;;;;;;8.10;5.43;;;;;;;-142.75;71.22;75690.47;5042989;28;20032;-69
2021/11/03 11:05:24;;;;;;;9.57;6.45;;;;;;;-142.75;72.21;75676.69;5038728;28;20033;-68